Time;durP1;ratioP1;P1;durP2;ratioP2;P2;SDS_P1;SDS_P2;PMS_P1;PMS_P2;Temp;Humidity;BMP_temperature;BMP_pressure;BME280_temperature;BME280_humidity;BME280_pressure;Samples;Min_cycle;Max_cycle;Signal;HPM_P1;HPM_P2
2021/01/09 00:01:56;;;;;;;16.95;12.10;;;;;;;;;;4998306;28;20501;-67
2021/01/09 00:04:21;;;;;;;13.88;10.80;;;;;;;;;;5001611;28;20091;-67
2021/01/09 00:06:47;;;;;;;14.98;11.68;;;;;;;;;;5000325;28;20125;-68
2021/01/09 00:09:12;;;;;;;16.15;12.77;;;;;;;;;;5002396;28;20159;-67
2021/01/09 00:11:38;;;;;;;16.27;12.68;;;;;;;;;;4997680;28;20180;-67
2021/01/09 00:14:03;;;;;;;19.15;15.00;;;;;;;;;;5001610;28;20045;-68
2021/01/09 00:16:28;;;;;;;17.40;14.07;;;;;;;;;;5001125;28;20400;-68
2021/01/09 00:18:54;;;;;;;17.23;13.50;;;;;;;;;;5000858;28;20096;-68
2021/01/09 00:21:19;;;;;;;15.73;11.93;;;;;;;;;;5001108;28;20091;-67
2021/01/09 00:23:45;;;;;;;17.13;13.55;;;;;;;;;;4999631;28;20393;-68
2021/01/09 00:26:10;;;;;;;17.70;13.00;;;;;;;;;;5001527;28;20033;-67
2021/01/09 00:28:36;;;;;;;16.65;12.88;;;;;;;;;;4998601;28;20484;-67
2021/01/09 00:31:01;;;;;;;15.60;11.82;;;;;;;;;;4999668;28;20042;-68
2021/01/09 00:33:27;;;;;;;13.00;10.68;;;;;;;;;;5000158;28;20420;-68
2021/01/09 00:35:56;;;;;;;15.65;11.30;;;;;;;;;;4999148;28;20057;-68
2021/01/09 00:38:22;;;;;;;18.45;12.52;;;;;;;;;;4999623;28;20029;-68
2021/01/09 00:40:47;;;;;;;15.43;11.88;;;;;;;;;;4999284;28;20057;-68
2021/01/09 00:43:13;;;;;;;15.82;11.50;;;;;;;;;;5001795;28;20057;-68
2021/01/09 00:45:38;;;;;;;16.50;11.23;;;;;;;;;;4999496;28;20038;-68
2021/01/09 00:48:04;;;;;;;16.40;12.40;;;;;;;;;;5000294;28;20136;-68
2021/01/09 00:50:29;;;;;;;16.67;11.43;;;;;;;;;;5000494;28;20045;-68
2021/01/09 00:52:54;;;;;;;15.35;11.52;;;;;;;;;;5000698;28;20068;-68
2021/01/09 00:55:20;;;;;;;13.85;11.20;;;;;;;;;;5001111;28;20116;-68
2021/01/09 00:57:46;;;;;;;18.00;11.52;;;;;;;;;;4996519;28;20137;-68
2021/01/09 01:00:11;;;;;;;14.23;10.88;;;;;;;;;;5000586;28;20120;-68
2021/01/09 01:02:37;;;;;;;14.40;11.30;;;;;;;;;;4999712;28;20116;-68
2021/01/09 01:05:03;;;;;;;13.82;10.77;;;;;;;;;;4997007;28;20034;-68
2021/01/09 01:07:30;;;;;;;13.77;11.10;;;;;;;;;;5000216;28;20034;-68
2021/01/09 01:09:56;;;;;;;14.38;11.07;;;;;;;;;;4999998;28;20114;-68
2021/01/09 01:12:21;;;;;;;13.75;11.00;;;;;;;;;;4999528;28;20117;-68
2021/01/09 01:14:46;;;;;;;13.48;10.45;;;;;;;;;;4996924;28;20030;-68
2021/01/09 01:17:12;;;;;;;14.82;11.45;;;;;;;;;;5001274;28;20026;-68
2021/01/09 01:19:37;;;;;;;16.52;10.90;;;;;;;;;;4999758;28;20041;-69
2021/01/09 01:22:02;;;;;;;13.48;10.90;;;;;;;;;;4999588;28;20103;-68
2021/01/09 01:24:27;;;;;;;13.07;10.90;;;;;;;;;;5000683;28;20111;-68
2021/01/09 01:26:53;;;;;;;15.13;11.18;;;;;;;;;;4999726;28;20097;-68
2021/01/09 01:29:18;;;;;;;14.82;10.50;;;;;;;;;;4999095;28;20026;-67
2021/01/09 01:31:43;;;;;;;14.98;10.50;;;;;;;;;;4999239;28;20053;-68
2021/01/09 01:34:09;;;;;;;14.68;10.32;;;;;;;;;;5016254;28;20029;-68
2021/01/09 01:36:34;;;;;;;14.23;10.65;;;;;;;;;;4999729;28;20029;-68
2021/01/09 01:38:59;;;;;;;15.00;10.15;;;;;;;;;;5002590;28;20412;-67
2021/01/09 01:41:25;;;;;;;13.35;10.07;;;;;;;;;;5004043;28;20045;-67
2021/01/09 01:43:50;;;;;;;16.75;10.55;;;;;;;;;;5003056;28;20041;-67
2021/01/09 01:46:16;;;;;;;14.73;11.13;;;;;;;;;;5006032;28;20100;-67
2021/01/09 01:48:41;;;;;;;14.10;10.85;;;;;;;;;;5001305;28;20037;-67
2021/01/09 01:51:09;;;;;;;13.52;10.32;;;;;;;;;;5002133;28;20041;-67
2021/01/09 01:53:34;;;;;;;14.20;11.90;;;;;;;;;;5002923;28;20037;-67
2021/01/09 01:56:00;;;;;;;13.00;10.02;;;;;;;;;;5003050;28;20065;-67
2021/01/09 01:58:25;;;;;;;13.02;10.43;;;;;;;;;;5003420;28;20060;-67
2021/01/09 02:00:51;;;;;;;15.82;11.13;;;;;;;;;;5002806;28;20109;-67
2021/01/09 02:03:18;;;;;;;14.07;10.63;;;;;;;;;;5004609;28;20040;-67
2021/01/09 02:05:52;;;;;;;17.85;10.73;;;;;;;;;;5001331;28;20112;-67
2021/01/09 02:08:22;;;;;;;15.02;11.05;;;;;;;;;;5004587;28;20391;-67
2021/01/09 02:10:53;;;;;;;13.05;9.68;;;;;;;;;;5001579;28;20092;-67
2021/01/09 02:13:21;;;;;;;;;;;;;;;;;;5003469;28;20034;-67
2021/01/09 02:15:49;;;;;;;14.38;10.35;;;;;;;;;;5002390;28;19920;-67
2021/01/09 02:18:17;;;;;;;13.23;9.30;;;;;;;;;;5004294;28;20389;-66
2021/01/09 02:20:44;;;;;;;12.38;10.13;;;;;;;;;;5000267;28;20061;-67
2021/01/09 02:23:10;;;;;;;12.13;9.40;;;;;;;;;;5002686;28;20042;-67
2021/01/09 02:25:35;;;;;;;13.70;10.15;;;;;;;;;;5002661;28;20536;-67
2021/01/09 02:28:01;;;;;;;14.02;10.57;;;;;;;;;;5003235;28;20355;-68
2021/01/09 02:30:31;;;;;;;14.25;10.77;;;;;;;;;;4999781;28;20520;-67
2021/01/09 02:33:01;;;;;;;13.15;10.35;;;;;;;;;;5002813;28;20042;-67
2021/01/09 02:35:28;;;;;;;12.87;10.00;;;;;;;;;;5003087;28;20065;-67
2021/01/09 02:37:54;;;;;;;18.42;10.70;;;;;;;;;;4998922;28;20076;-67
2021/01/09 02:40:20;;;;;;;13.02;10.40;;;;;;;;;;5001725;28;20042;-67
2021/01/09 02:42:46;;;;;;;15.07;10.00;;;;;;;;;;5001883;28;20054;-67
2021/01/09 02:45:12;;;;;;;17.65;11.05;;;;;;;;;;5003331;28;20643;-67
2021/01/09 02:47:37;;;;;;;15.20;10.57;;;;;;;;;;5000250;28;20523;-67
2021/01/09 02:50:04;;;;;;;14.07;11.10;;;;;;;;;;5002417;28;20038;-67
2021/01/09 02:52:29;;;;;;;13.13;9.93;;;;;;;;;;5002177;28;20030;-66
2021/01/09 02:54:55;;;;;;;14.60;10.40;;;;;;;;;;5000586;28;20045;-67
2021/01/09 02:57:20;;;;;;;17.92;9.88;;;;;;;;;;5003198;28;20092;-67
2021/01/09 02:59:46;;;;;;;15.23;10.25;;;;;;;;;;5001354;28;20030;-67
2021/01/09 03:02:11;;;;;;;17.60;10.55;;;;;;;;;;5001646;28;20109;-67
2021/01/09 03:04:36;;;;;;;11.93;9.88;;;;;;;;;;4999648;28;20049;-67
2021/01/09 03:07:02;;;;;;;15.82;10.18;;;;;;;;;;5001812;28;20027;-67
2021/01/09 03:09:27;;;;;;;14.45;10.70;;;;;;;;;;5001837;28;20034;-67
2021/01/09 03:11:53;;;;;;;15.15;10.57;;;;;;;;;;4998237;28;20038;-67
2021/01/09 03:14:19;;;;;;;16.50;10.52;;;;;;;;;;5003087;28;20037;-67
2021/01/09 03:16:44;;;;;;;13.52;9.88;;;;;;;;;;4999501;28;20038;-67
2021/01/09 03:19:09;;;;;;;13.05;10.13;;;;;;;;;;5002351;28;20042;-67
2021/01/09 03:21:35;;;;;;;13.50;10.40;;;;;;;;;;5001287;28;20536;-67
2021/01/09 03:24:00;;;;;;;13.15;9.90;;;;;;;;;;5002114;28;20215;-67
2021/01/09 03:26:25;;;;;;;13.27;10.63;;;;;;;;;;5001058;28;21016;-67
2021/01/09 03:28:51;;;;;;;13.13;10.13;;;;;;;;;;5000819;28;20079;-68
2021/01/09 03:31:16;;;;;;;13.38;10.25;;;;;;;;;;5018113;28;20030;-68
2021/01/09 03:33:42;;;;;;;12.70;9.68;;;;;;;;;;5000278;28;20369;-68
2021/01/09 03:36:07;;;;;;;12.77;9.90;;;;;;;;;;4999205;28;20048;-68
2021/01/09 03:38:33;;;;;;;14.10;10.00;;;;;;;;;;5001431;28;20038;-68
2021/01/09 03:40:58;;;;;;;15.25;11.10;;;;;;;;;;5001448;28;20061;-68
2021/01/09 03:43:23;;;;;;;14.05;10.30;;;;;;;;;;4999308;28;20036;-68
2021/01/09 03:45:49;;;;;;;11.95;9.50;;;;;;;;;;5000164;28;20070;-68
2021/01/09 03:48:14;;;;;;;16.00;10.38;;;;;;;;;;5002547;28;20131;-68
2021/01/09 03:50:40;;;;;;;13.15;10.77;;;;;;;;;;5000207;28;20038;-68
2021/01/09 03:53:05;;;;;;;14.25;9.82;;;;;;;;;;4994536;28;20049;-67
2021/01/09 03:55:30;;;;;;;15.25;10.82;;;;;;;;;;4999100;28;20065;-67
2021/01/09 03:57:56;;;;;;;13.15;10.00;;;;;;;;;;5001256;28;20049;-67
2021/01/09 04:00:21;;;;;;;13.90;10.52;;;;;;;;;;5000163;28;20042;-67
2021/01/09 04:02:46;;;;;;;15.82;11.80;;;;;;;;;;5000143;28;20656;-67
2021/01/09 04:05:12;;;;;;;15.35;10.52;;;;;;;;;;5002279;28;20048;-67
2021/01/09 04:07:37;;;;;;;14.23;10.40;;;;;;;;;;5000046;28;20042;-67
2021/01/09 04:10:04;;;;;;;13.30;10.23;;;;;;;;;;4999913;28;20161;-67
2021/01/09 04:12:29;;;;;;;13.82;10.60;;;;;;;;;;5000616;28;20038;-67
2021/01/09 04:14:55;;;;;;;15.07;11.15;;;;;;;;;;5000802;28;20041;-67
2021/01/09 04:17:20;;;;;;;16.48;10.65;;;;;;;;;;4999817;28;20404;-67
2021/01/09 04:19:46;;;;;;;13.02;10.32;;;;;;;;;;5000177;28;20034;-67
2021/01/09 04:22:11;;;;;;;16.00;11.70;;;;;;;;;;5001893;28;20072;-67
2021/01/09 04:24:36;;;;;;;15.10;11.45;;;;;;;;;;5000084;28;20404;-67
2021/01/09 04:27:03;;;;;;;17.40;12.63;;;;;;;;;;4999884;28;20056;-67
2021/01/09 04:29:29;;;;;;;13.98;11.07;;;;;;;;;;4999980;28;20042;-67
2021/01/09 04:31:55;;;;;;;16.73;11.77;;;;;;;;;;4999795;28;20105;-67
2021/01/09 04:34:23;;;;;;;16.80;12.07;;;;;;;;;;4999836;28;20129;-67
2021/01/09 04:36:49;;;;;;;13.45;11.20;;;;;;;;;;4999841;28;20446;-67
2021/01/09 04:39:15;;;;;;;15.40;11.98;;;;;;;;;;5001855;28;20034;-67
2021/01/09 04:41:41;;;;;;;16.98;12.40;;;;;;;;;;4999282;28;20100;-67
2021/01/09 04:44:08;;;;;;;13.77;11.73;;;;;;;;;;4999381;28;20034;-67
2021/01/09 04:46:54;;;;;;;14.98;11.55;;;;;;;;;;5000398;28;20038;-67
2021/01/09 04:49:22;;;;;;;14.95;11.43;;;;;;;;;;5000732;28;20069;-69
2021/01/09 04:51:48;;;;;;;15.20;11.73;;;;;;;;;;4998965;28;20054;-67
2021/01/09 04:54:18;;;;;;;15.25;11.70;;;;;;;;;;5000356;28;20052;-67
2021/01/09 04:56:45;;;;;;;16.42;12.02;;;;;;;;;;4997152;28;20129;-67
2021/01/09 04:59:12;;;;;;;17.33;11.48;;;;;;;;;;4998813;28;20068;-68
2021/01/09 05:01:40;;;;;;;15.30;12.52;;;;;;;;;;4997211;28;20030;-68
2021/01/09 05:04:06;;;;;;;14.95;12.18;;;;;;;;;;5001265;28;20057;-68
2021/01/09 05:06:31;;;;;;;15.85;12.98;;;;;;;;;;4998793;28;20026;-68
2021/01/09 05:08:57;;;;;;;15.55;11.70;;;;;;;;;;5000451;28;20418;-68
2021/01/09 05:11:23;;;;;;;15.02;11.68;;;;;;;;;;4998510;28;20559;-67
2021/01/09 05:13:49;;;;;;;16.35;12.45;;;;;;;;;;5018793;28;20453;-68
2021/01/09 05:16:15;;;;;;;18.95;13.10;;;;;;;;;;5005182;28;20044;-68
2021/01/09 05:18:41;;;;;;;14.95;10.95;;;;;;;;;;5002417;28;20022;-68
2021/01/09 05:21:10;;;;;;;13.80;11.55;;;;;;;;;;5003715;28;20125;-68
2021/01/09 05:23:51;;;;;;;14.18;12.25;;;;;;;;;;5003131;28;20121;-68
2021/01/09 05:26:18;;;;;;;10.63;8.47;;;;;;;;;;5004109;28;20045;-67
2021/01/09 05:28:46;;;;;;;14.00;10.73;;;;;;;;;;5002725;28;20299;-67
2021/01/09 05:31:12;;;;;;;15.80;11.80;;;;;;;;;;5002050;28;20117;-67
2021/01/09 05:33:39;;;;;;;13.82;11.02;;;;;;;;;;5003160;28;20034;-67
2021/01/09 05:36:05;;;;;;;13.90;11.13;;;;;;;;;;5004315;28;20057;-67
2021/01/09 05:38:37;;;;;;;14.13;10.95;;;;;;;;;;5003632;28;20088;-67
2021/01/09 05:41:05;;;;;;;14.57;10.30;;;;;;;;;;5000518;28;20475;-67
2021/01/09 05:43:30;;;;;;;14.73;11.38;;;;;;;;;;5003756;28;20412;-68
2021/01/09 05:45:58;;;;;;;13.32;10.05;;;;;;;;;;5003743;28;20069;-68
2021/01/09 05:48:24;;;;;;;16.88;11.43;;;;;;;;;;5001743;28;20443;-68
2021/01/09 05:50:52;;;;;;;13.70;10.63;;;;;;;;;;4998547;28;20057;-67
2021/01/09 05:53:46;;;;;;;14.60;11.50;;;;;;;;;;5002262;28;20049;-67
2021/01/09 05:56:14;;;;;;;16.60;11.63;;;;;;;;;;5001261;28;20029;-68
2021/01/09 05:58:40;;;;;;;14.73;12.18;;;;;;;;;;5002340;28;20106;-68
2021/01/09 06:01:13;;;;;;;16.08;11.45;;;;;;;;;;5004032;28;20065;-68
2021/01/09 06:03:45;;;;;;;13.05;10.77;;;;;;;;;;5002495;28;20049;-67
2021/01/09 06:06:39;;;;;;;15.68;10.95;;;;;;;;;;5002238;28;20030;-68
2021/01/09 06:09:08;;;;;;;13.00;10.57;;;;;;;;;;5002814;28;20030;-68
2021/01/09 06:11:42;;;;;;;14.13;10.52;;;;;;;;;;5001898;28;20042;-67
2021/01/09 06:14:12;;;;;;;15.30;10.05;;;;;;;;;;5001738;28;20038;-68
2021/01/09 06:16:40;;;;;;;12.55;10.15;;;;;;;;;;5001809;28;20085;-68
2021/01/09 06:19:06;;;;;;;13.05;10.35;;;;;;;;;;5003341;28;20038;-67
2021/01/09 06:21:33;;;;;;;15.88;11.18;;;;;;;;;;5002446;28;20064;-68
2021/01/09 06:23:59;;;;;;;17.55;11.05;;;;;;;;;;4997483;28;20070;-68
2021/01/09 06:26:26;;;;;;;16.63;11.38;;;;;;;;;;5001233;28;20513;-67
2021/01/09 06:28:58;;;;;;;15.82;10.85;;;;;;;;;;4999847;28;20082;-67
2021/01/09 06:31:28;;;;;;;15.63;11.15;;;;;;;;;;5001050;28;20041;-68
2021/01/09 06:33:56;;;;;;;12.95;10.05;;;;;;;;;;4999424;28;20371;-68
2021/01/09 06:36:23;;;;;;;14.00;9.77;;;;;;;;;;5000129;28;20034;-68
2021/01/09 06:38:51;;;;;;;12.10;10.27;;;;;;;;;;5001572;28;20033;-67
2021/01/09 06:41:19;;;;;;;16.48;11.32;;;;;;;;;;5003254;28;20112;-68
2021/01/09 06:43:48;;;;;;;13.02;10.30;;;;;;;;;;4999516;28;20100;-67
2021/01/09 06:46:29;;;;;;;15.07;11.63;;;;;;;;;;5003584;28;20030;-67
2021/01/09 06:48:54;;;;;;;12.57;9.43;;;;;;;;;;4998639;28;20466;-68
2021/01/09 06:51:34;;;;;;;14.50;11.27;;;;;;;;;;5003148;28;20096;-67
2021/01/09 06:54:15;;;;;;;14.07;10.32;;;;;;;;;;5001419;28;20042;-67
2021/01/09 06:56:44;;;;;;;15.02;10.95;;;;;;;;;;5000775;28;20045;-67
2021/01/09 06:59:09;;;;;;;14.18;11.30;;;;;;;;;;5001763;28;20034;-67
2021/01/09 07:01:38;;;;;;;18.73;12.18;;;;;;;;;;5001221;28;20088;-67
2021/01/09 07:04:04;;;;;;;16.15;11.93;;;;;;;;;;5002803;28;20096;-68
2021/01/09 07:06:54;;;;;;;15.43;12.48;;;;;;;;;;5000634;28;20065;-67
2021/01/09 07:09:24;;;;;;;18.92;12.27;;;;;;;;;;5000852;28;20121;-67
2021/01/09 07:11:53;;;;;;;16.02;12.07;;;;;;;;;;5000722;28;20038;-67
2021/01/09 07:14:18;;;;;;;17.60;12.88;;;;;;;;;;5001216;28;20138;-67
2021/01/09 07:16:47;;;;;;;17.65;12.82;;;;;;;;;;4999512;28;20140;-67
2021/01/09 07:19:13;;;;;;;16.85;12.85;;;;;;;;;;5003323;28;20037;-67
2021/01/09 07:21:39;;;;;;;15.43;12.07;;;;;;;;;;4998389;28;20039;-67
2021/01/09 07:24:08;;;;;;;16.73;12.63;;;;;;;;;;5001722;28;20037;-67
2021/01/09 07:26:35;;;;;;;13.30;11.32;;;;;;;;;;5001277;28;20141;-67
2021/01/09 07:29:04;;;;;;;13.57;10.25;;;;;;;;;;5001796;28;20492;-67
2021/01/09 07:31:31;;;;;;;16.15;11.60;;;;;;;;;;5001018;28;20372;-67
2021/01/09 07:33:57;;;;;;;27.83;17.73;;;;;;;;;;5001066;28;20044;-68
2021/01/09 07:36:26;;;;;;;22.02;15.07;;;;;;;;;;5001549;28;20026;-68
2021/01/09 07:39:00;;;;;;;17.55;13.30;;;;;;;;;;4998119;28;20034;-67
2021/01/09 07:41:36;;;;;;;16.17;11.70;;;;;;;;;;5001056;28;20084;-67
2021/01/09 07:44:19;;;;;;;16.05;13.18;;;;;;;;;;5001153;28;20552;-67
2021/01/09 07:46:56;;;;;;;20.65;13.85;;;;;;;;;;4999741;28;20034;-67
2021/01/09 07:49:28;;;;;;;18.52;13.75;;;;;;;;;;5001673;28;20342;-66
2021/01/09 07:52:07;;;;;;;17.08;12.30;;;;;;;;;;4997151;28;20034;-67
2021/01/09 07:54:34;;;;;;;17.25;12.57;;;;;;;;;;5000769;28;20058;-66
2021/01/09 07:56:59;;;;;;;14.38;11.30;;;;;;;;;;5001281;28;20026;-67
2021/01/09 07:59:24;;;;;;;15.77;12.07;;;;;;;;;;4998467;28;20351;-67
2021/01/09 08:01:50;;;;;;;18.80;11.75;;;;;;;;;;5000268;28;20062;-67
2021/01/09 08:04:15;;;;;;;17.17;11.88;;;;;;;;;;5001657;28;20076;-67
2021/01/09 08:06:41;;;;;;;14.55;10.93;;;;;;;;;;4996983;28;20068;-68
2021/01/09 08:09:07;;;;;;;15.95;11.82;;;;;;;;;;5001877;28;20037;-68
2021/01/09 08:11:40;;;;;;;14.05;11.25;;;;;;;;;;5000551;28;20034;-68
2021/01/09 08:14:05;;;;;;;18.48;11.00;;;;;;;;;;5000942;28;20045;-67
2021/01/09 08:16:31;;;;;;;14.48;11.07;;;;;;;;;;4998155;28;20626;-68
2021/01/09 08:19:15;;;;;;;17.33;12.85;;;;;;;;;;5000532;28;20117;-67
2021/01/09 08:21:40;;;;;;;14.27;11.85;;;;;;;;;;4997480;28;20117;-67
2021/01/09 08:24:06;;;;;;;17.05;11.77;;;;;;;;;;5001427;28;20141;-68
2021/01/09 08:26:32;;;;;;;16.63;11.77;;;;;;;;;;4996782;28;20049;-67
2021/01/09 08:28:58;;;;;;;15.50;12.13;;;;;;;;;;4999688;28;20361;-68
2021/01/09 08:31:24;;;;;;;15.95;12.05;;;;;;;;;;5000605;28;20116;-67
2021/01/09 08:33:50;;;;;;;16.30;12.15;;;;;;;;;;4999162;28;20034;-68
2021/01/09 08:36:15;;;;;;;16.58;12.30;;;;;;;;;;5000183;28;20500;-68
2021/01/09 08:38:42;;;;;;;15.82;12.10;;;;;;;;;;4998479;28;20457;-67
2021/01/09 08:41:07;;;;;;;18.08;12.60;;;;;;;;;;5001499;28;20034;-67
2021/01/09 08:43:33;;;;;;;13.95;11.02;;;;;;;;;;4997486;28;20168;-67
2021/01/09 08:45:59;;;;;;;18.33;12.00;;;;;;;;;;5000742;28;20409;-67
2021/01/09 08:48:37;;;;;;;15.07;11.43;;;;;;;;;;5000411;28;20091;-67
2021/01/09 08:51:14;;;;;;;14.48;10.60;;;;;;;;;;4998601;28;20049;-67
2021/01/09 08:53:58;;;;;;;16.33;13.13;;;;;;;;;;4999650;28;20031;-67
2021/01/09 08:56:27;;;;;;;18.23;12.73;;;;;;;;;;4995121;28;20037;-68
2021/01/09 08:58:53;;;;;;;18.05;12.93;;;;;;;;;;4996059;28;20049;-68
2021/01/09 09:01:24;;;;;;;18.05;12.52;;;;;;;;;;4997265;28;20504;-67
2021/01/09 09:03:51;;;;;;;16.17;12.98;;;;;;;;;;4994287;28;20347;-67
2021/01/09 09:06:21;;;;;;;15.45;13.00;;;;;;;;;;5001488;28;20255;-67
2021/01/09 09:08:47;;;;;;;16.77;13.30;;;;;;;;;;4998432;28;20026;-67
2021/01/09 09:11:14;;;;;;;16.58;13.77;;;;;;;;;;4999747;28;20045;-67
2021/01/09 09:13:40;;;;;;;15.20;12.30;;;;;;;;;;4998156;28;20026;-67
2021/01/09 09:16:19;;;;;;;16.85;12.63;;;;;;;;;;5001087;28;20099;-67
2021/01/09 09:18:46;;;;;;;15.43;11.50;;;;;;;;;;4998048;28;20066;-67
2021/01/09 09:21:11;;;;;;;14.25;11.07;;;;;;;;;;5012821;28;20623;-67
2021/01/09 09:23:37;;;;;;;16.17;11.60;;;;;;;;;;4996787;28;20048;-67
2021/01/09 09:26:08;;;;;;;15.00;11.10;;;;;;;;;;5000525;28;20050;-67
2021/01/09 09:28:42;;;;;;;;;;;;;;;;;;4999929;28;20030;-67
2021/01/09 09:31:18;;;;;;;12.85;9.48;;;;;;;;;;4994548;28;19917;-68
2021/01/09 09:34:05;;;;;;;14.20;10.38;;;;;;;;;;4998905;28;20465;-67
2021/01/09 09:36:35;;;;;;;14.82;9.88;;;;;;;;;;4999636;28;20045;-64
2021/01/09 09:39:12;;;;;;;16.52;12.23;;;;;;;;;;4998518;28;20074;-66
2021/01/09 09:41:58;;;;;;;18.42;11.82;;;;;;;;;;4998677;28;20043;-65
2021/01/09 09:44:39;;;;;;;13.85;10.98;;;;;;;;;;5000066;28;20033;-66
2021/01/09 09:47:27;;;;;;;17.50;11.05;;;;;;;;;;4997473;28;20070;-66
2021/01/09 09:49:53;;;;;;;14.18;10.10;;;;;;;;;;4996290;28;20134;-66
2021/01/09 09:52:19;;;;;;;14.25;9.98;;;;;;;;;;5000289;28;20104;-66
2021/01/09 09:54:46;;;;;;;10.63;8.70;;;;;;;;;;4997874;28;20037;-66
2021/01/09 09:57:22;;;;;;;12.75;9.20;;;;;;;;;;5000337;28;20033;-66
2021/01/09 10:00:07;;;;;;;15.88;10.20;;;;;;;;;;5000525;28;20034;-66
2021/01/09 10:02:33;;;;;;;17.58;9.63;;;;;;;;;;5002969;28;20185;-66
2021/01/09 10:04:58;;;;;;;12.90;9.20;;;;;;;;;;5001251;28;20041;-66
2021/01/09 10:07:24;;;;;;;13.95;9.50;;;;;;;;;;5002153;28;20034;-66
2021/01/09 10:09:50;;;;;;;10.75;7.97;;;;;;;;;;5001826;28;20037;-66
2021/01/09 10:12:16;;;;;;;11.52;8.32;;;;;;;;;;5002957;28;20033;-66
2021/01/09 10:14:41;;;;;;;13.18;9.18;;;;;;;;;;5001688;28;20123;-66
2021/01/09 10:17:13;;;;;;;13.18;9.18;;;;;;;;;;4986685;28;20026;-66
2021/01/09 10:19:38;;;;;;;13.25;9.70;;;;;;;;;;4999130;28;20129;-66
2021/01/09 10:22:04;;;;;;;13.50;8.35;;;;;;;;;;5001470;28;20117;-66
2021/01/09 10:24:29;;;;;;;15.73;8.52;;;;;;;;;;5002643;28;20119;-67
2021/01/09 10:26:54;;;;;;;12.13;8.45;;;;;;;;;;5002420;28;20065;-67
2021/01/09 10:29:19;;;;;;;10.55;7.55;;;;;;;;;;4994912;28;20193;-67
2021/01/09 10:31:45;;;;;;;15.70;8.43;;;;;;;;;;5000304;28;20453;-66
2021/01/09 10:34:10;;;;;;;10.80;7.35;;;;;;;;;;4995867;28;20038;-66
2021/01/09 10:36:37;;;;;;;12.57;8.75;;;;;;;;;;5000100;28;20026;-66
2021/01/09 10:39:04;;;;;;;10.80;7.82;;;;;;;;;;5003296;28;20062;-66
2021/01/09 10:41:30;;;;;;;10.07;8.05;;;;;;;;;;5000171;28;20049;-66
2021/01/09 10:43:55;;;;;;;9.75;6.97;;;;;;;;;;5001910;28;20027;-65
2021/01/09 10:46:26;;;;;;;9.95;7.07;;;;;;;;;;4999884;28;20038;-65
2021/01/09 10:48:51;;;;;;;9.02;6.78;;;;;;;;;;4998819;28;20489;-65
2021/01/09 10:51:19;;;;;;;9.88;7.18;;;;;;;;;;5003256;28;20030;-66
2021/01/09 10:53:45;;;;;;;10.13;7.40;;;;;;;;;;5000940;28;20125;-65
2021/01/09 10:56:11;;;;;;;10.88;6.45;;;;;;;;;;4998943;28;20484;-66
2021/01/09 10:58:37;;;;;;;8.55;5.90;;;;;;;;;;5001566;28;20038;-65
2021/01/09 11:01:04;;;;;;;9.52;6.75;;;;;;;;;;5002718;28;20034;-66
2021/01/09 11:03:29;;;;;;;8.40;6.78;;;;;;;;;;5000847;28;20034;-66
2021/01/09 11:05:54;;;;;;;11.75;8.40;;;;;;;;;;5001978;28;20085;-66
2021/01/09 11:08:20;;;;;;;8.18;6.22;;;;;;;;;;5002605;28;20033;-66
2021/01/09 11:10:45;;;;;;;8.52;6.18;;;;;;;;;;5000369;28;20045;-66
2021/01/09 11:13:10;;;;;;;14.15;6.22;;;;;;;;;;5001320;28;20457;-66
2021/01/09 11:15:36;;;;;;;9.00;6.05;;;;;;;;;;5000725;28;20099;-66
2021/01/09 11:18:01;;;;;;;7.20;5.43;;;;;;;;;;4995487;28;20605;-66
2021/01/09 11:20:27;;;;;;;7.20;5.10;;;;;;;;;;5000649;28;20080;-66
2021/01/09 11:22:52;;;;;;;8.40;5.82;;;;;;;;;;4997039;28;20050;-66
2021/01/09 11:25:18;;;;;;;10.65;5.68;;;;;;;;;;5002891;28;20080;-66
2021/01/09 11:27:43;;;;;;;10.38;5.47;;;;;;;;;;5000498;28;20453;-66
2021/01/09 11:30:09;;;;;;;10.10;6.18;;;;;;;;;;5002959;28;20100;-67
2021/01/09 11:32:34;;;;;;;9.65;6.32;;;;;;;;;;5000443;28;20380;-68
2021/01/09 11:35:02;;;;;;;9.30;6.15;;;;;;;;;;4994436;28;20026;-67
2021/01/09 11:37:27;;;;;;;11.65;6.22;;;;;;;;;;4999833;28;20030;-68
2021/01/09 11:39:54;;;;;;;8.18;5.97;;;;;;;;;;4999891;28;20026;-67
2021/01/09 11:42:21;;;;;;;9.07;5.63;;;;;;;;;;4999194;28;20037;-68
2021/01/09 11:44:47;;;;;;;8.80;5.55;;;;;;;;;;4998389;28;20057;-67
2021/01/09 11:47:13;;;;;;;7.57;5.18;;;;;;;;;;5002923;28;20113;-68
2021/01/09 11:49:39;;;;;;;6.75;4.53;;;;;;;;;;4999123;28;20038;-68
2021/01/09 11:52:04;;;;;;;7.68;4.95;;;;;;;;;;5000755;28;20038;-66
2021/01/09 11:54:30;;;;;;;7.70;4.55;;;;;;;;;;5000160;28;20026;-67
2021/01/09 11:56:56;;;;;;;6.55;4.53;;;;;;;;;;5001242;28;20077;-66
2021/01/09 11:59:21;;;;;;;8.70;4.68;;;;;;;;;;5001350;28;20029;-67
2021/01/09 12:01:47;;;;;;;6.78;3.95;;;;;;;;;;4997754;28;20382;-67
2021/01/09 12:04:13;;;;;;;7.05;5.03;;;;;;;;;;5002177;28;20044;-66
2021/01/09 12:06:38;;;;;;;6.50;4.85;;;;;;;;;;4998598;28;20585;-67
2021/01/09 12:09:03;;;;;;;7.10;5.25;;;;;;;;;;4998757;28;20038;-66
2021/01/09 12:11:29;;;;;;;7.88;5.55;;;;;;;;;;5000486;28;20030;-66
2021/01/09 12:13:54;;;;;;;6.35;4.50;;;;;;;;;;4999304;28;20038;-65
2021/01/09 12:16:29;;;;;;;5.82;4.13;;;;;;;;;;5000052;28;20036;-67
2021/01/09 12:18:55;;;;;;;6.95;4.40;;;;;;;;;;4997786;28;20113;-66
2021/01/09 12:21:22;;;;;;;5.95;4.53;;;;;;;;;;5000721;28;20601;-67
2021/01/09 12:23:48;;;;;;;6.80;5.22;;;;;;;;;;4999338;28;20616;-66
2021/01/09 12:26:20;;;;;;;13.73;4.97;;;;;;;;;;5000616;28;20111;-68
2021/01/09 12:28:46;;;;;;;6.47;4.47;;;;;;;;;;4998454;28;20034;-68
2021/01/09 12:31:12;;;;;;;6.90;4.35;;;;;;;;;;5000744;28;20476;-69
2021/01/09 12:33:38;;;;;;;8.32;5.20;;;;;;;;;;4998361;28;20042;-67
2021/01/09 12:36:04;;;;;;;11.15;6.15;;;;;;;;;;5001282;28;20049;-68
2021/01/09 12:38:29;;;;;;;7.78;5.10;;;;;;;;;;4999164;28;20392;-68
2021/01/09 12:40:54;;;;;;;7.65;4.65;;;;;;;;;;5000448;28;20038;-69
2021/01/09 12:43:20;;;;;;;6.18;4.75;;;;;;;;;;5014716;28;20464;-66
2021/01/09 12:45:45;;;;;;;7.53;5.18;;;;;;;;;;4999094;28;20045;-68
2021/01/09 12:48:10;;;;;;;6.07;4.22;;;;;;;;;;5001693;28;20033;-68
2021/01/09 12:50:43;;;;;;;7.53;4.43;;;;;;;;;;4998566;28;20037;-68
2021/01/09 12:53:08;;;;;;;9.65;4.57;;;;;;;;;;4996636;28;20457;-69
2021/01/09 12:55:35;;;;;;;6.93;4.97;;;;;;;;;;4996620;28;20053;-68
2021/01/09 12:58:01;;;;;;;9.60;5.35;;;;;;;;;;4999839;28;20056;-68
2021/01/09 13:00:26;;;;;;;9.15;5.28;;;;;;;;;;5001113;28;20112;-66
2021/01/09 13:02:51;;;;;;;7.80;5.82;;;;;;;;;;4999903;28;20497;-66
2021/01/09 13:05:17;;;;;;;9.10;5.78;;;;;;;;;;5001581;28;20451;-67
2021/01/09 13:07:42;;;;;;;9.15;6.57;;;;;;;;;;4979065;28;20029;-67
2021/01/09 13:10:08;;;;;;;8.23;5.45;;;;;;;;;;4998427;28;20817;-67
2021/01/09 13:12:33;;;;;;;9.85;6.32;;;;;;;;;;4997817;28;20402;-67
2021/01/09 13:14:59;;;;;;;13.27;6.53;;;;;;;;;;4999316;28;20070;-68
2021/01/09 13:17:24;;;;;;;9.32;6.03;;;;;;;;;;5001442;28;20373;-67
2021/01/09 13:19:49;;;;;;;7.95;6.13;;;;;;;;;;4998734;28;20202;-67
2021/01/09 13:22:15;;;;;;;9.25;6.10;;;;;;;;;;4998279;28;20100;-67
2021/01/09 13:24:41;;;;;;;7.65;6.10;;;;;;;;;;4998554;28;20026;-67
2021/01/09 13:27:06;;;;;;;9.00;5.45;;;;;;;;;;4998801;28;20042;-68
2021/01/09 13:29:31;;;;;;;7.00;5.07;;;;;;;;;;5013450;28;20033;-67
2021/01/09 13:31:57;;;;;;;8.02;5.20;;;;;;;;;;4997516;28;20042;-67
2021/01/09 13:34:23;;;;;;;10.27;5.65;;;;;;;;;;4997885;28;20061;-66
2021/01/09 13:36:48;;;;;;;6.55;4.60;;;;;;;;;;4998417;28;20532;-67
2021/01/09 13:39:15;;;;;;;9.20;4.97;;;;;;;;;;4996593;28;20030;-68
2021/01/09 13:41:41;;;;;;;5.95;4.10;;;;;;;;;;4995713;28;20031;-67
2021/01/09 13:44:07;;;;;;;5.60;3.83;;;;;;;;;;4994666;28;20046;-67
2021/01/09 13:46:33;;;;;;;8.70;4.95;;;;;;;;;;4997509;28;20026;-67
2021/01/09 13:49:02;;;;;;;8.00;5.10;;;;;;;;;;4995981;28;20042;-68
2021/01/09 13:51:29;;;;;;;6.45;4.53;;;;;;;;;;4996013;28;20133;-68
2021/01/09 13:53:55;;;;;;;8.95;4.68;;;;;;;;;;5001687;28;20473;-66
2021/01/09 13:56:38;;;;;;;6.03;4.32;;;;;;;;;;5002244;28;20661;-67
2021/01/09 13:59:05;;;;;;;7.45;5.28;;;;;;;;;;4994511;28;20069;-66
2021/01/09 14:01:30;;;;;;;8.15;5.07;;;;;;;;;;5000887;28;20593;-67
2021/01/09 14:03:56;;;;;;;8.63;5.05;;;;;;;;;;4996660;28;20042;-66
2021/01/09 14:06:21;;;;;;;6.20;4.38;;;;;;;;;;5000093;28;20072;-66
2021/01/09 14:08:47;;;;;;;6.03;3.60;;;;;;;;;;5001341;28;20048;-67
2021/01/09 14:11:13;;;;;;;5.88;3.95;;;;;;;;;;5003819;28;20084;-66
2021/01/09 14:13:39;;;;;;;5.10;3.53;;;;;;;;;;5000390;28;20086;-67
2021/01/09 14:16:05;;;;;;;5.70;3.80;;;;;;;;;;4999420;28;20046;-66
2021/01/09 14:18:30;;;;;;;4.75;2.85;;;;;;;;;;5001299;28;20428;-67
2021/01/09 14:20:56;;;;;;;5.43;4.22;;;;;;;;;;5001158;28;20034;-67
2021/01/09 14:23:22;;;;;;;4.55;3.20;;;;;;;;;;5001507;28;20412;-67
2021/01/09 14:25:54;;;;;;;5.30;3.45;;;;;;;;;;4997803;28;20046;-67
2021/01/09 14:28:21;;;;;;;7.78;4.13;;;;;;;;;;5000957;28;20034;-67